createdAt,value
2023-01-29T00:14:42.821Z,6.19
2023-01-29T00:34:42.966Z,6.19
2023-01-29T00:54:42.815Z,6.19
2023-01-29T01:14:42.829Z,6.19
2023-01-29T01:34:42.831Z,6.19
2023-01-29T01:54:42.840Z,6.18
2023-01-29T02:14:42.838Z,6.18
2023-01-29T02:34:42.718Z,6.18
2023-01-29T02:54:42.854Z,6.18
2023-01-29T03:14:42.863Z,6.18
2023-01-29T03:34:42.728Z,6.18
2023-01-29T03:54:42.867Z,6.18
2023-01-29T04:14:42.337Z,6.18
2023-01-29T04:34:42.880Z,6.17
2023-01-29T04:54:42.869Z,6.18
2023-01-29T05:14:42.888Z,6.18
2023-01-29T05:34:42.891Z,6.17
2023-01-29T05:54:42.887Z,6.17
2023-01-29T06:14:42.889Z,6.17
2023-01-29T06:34:42.892Z,6.17
2023-01-29T06:54:42.898Z,6.17
2023-01-29T07:14:42.769Z,6.17
2023-01-29T07:34:42.903Z,6.17
2023-01-29T07:54:42.772Z,6.17
2023-01-29T08:34:42.925Z,6.16
2023-01-29T08:54:42.918Z,6.16
2023-01-29T09:14:42.917Z,6.16
2023-01-29T09:34:42.928Z,6.16
2023-01-29T09:54:42.933Z,6.16
2023-01-29T10:14:42.937Z,6.16
2023-01-29T10:34:42.931Z,6.15
2023-01-29T10:54:42.964Z,6.15
2023-01-29T11:14:42.968Z,6.15
2023-01-29T11:34:42.821Z,6.15
2023-01-29T11:54:42.945Z,6.15
2023-01-29T12:14:43.028Z,6.15
2023-01-29T12:34:42.974Z,6.14
2023-01-29T12:54:42.958Z,6.14
2023-01-29T13:14:42.998Z,6.14
2023-01-29T13:34:42.963Z,6.14
2023-01-29T14:14:41.842Z,6.14
2023-01-29T14:34:42.974Z,6.14
2023-01-29T14:54:42.975Z,6.14
2023-01-29T15:14:42.980Z,6.14
2023-01-29T15:34:43.009Z,6.14
2023-01-29T15:54:41.877Z,6.13
2023-01-29T16:14:42.992Z,6.13
2023-01-29T16:34:42.866Z,6.13
2023-01-29T16:54:43.018Z,6.13
2023-01-29T17:34:43.000Z,6.13
2023-01-29T17:54:42.997Z,6.13
2023-01-29T18:34:43.009Z,6.13
2023-01-29T19:14:43.008Z,6.13
2023-01-29T19:34:43.030Z,6.13
2023-01-29T19:54:42.890Z,6.12
2023-01-29T20:14:43.023Z,6.12
2023-01-29T20:34:42.540Z,6.12
2023-01-29T20:54:43.045Z,6.12
2023-01-29T21:14:43.039Z,6.12
2023-01-29T21:34:42.515Z,6.12
2023-01-29T21:54:42.901Z,6.11
2023-01-29T22:54:42.524Z,6.11
2023-01-29T23:14:43.045Z,6.1
2023-01-29T23:34:43.057Z,6.1
2023-01-29T23:54:42.532Z,6.1
